Time;durP1;ratioP1;P1;durP2;ratioP2;P2;SDS_P1;SDS_P2;PMS_P1;PMS_P2;Temp;Humidity;BMP_temperature;BMP_pressure;BME280_temperature;BME280_humidity;BME280_pressure;Samples;Min_cycle;Max_cycle;Signal;HPM_P1;HPM_P2
2022/11/29 00:01:06;;;;;;;20.43;12.80;;;8.60;99.90;;;;;;5014176;28;20433;-67
2022/11/29 00:03:32;;;;;;;19.73;13.07;;;8.70;99.10;;;;;;5012477;28;20948;-71
2022/11/29 00:06:04;;;;;;;20.50;13.13;;;8.70;99.90;;;;;;5009760;28;20943;-71
2022/11/29 00:08:30;;;;;;;20.83;13.03;;;8.70;97.80;;;;;;5011866;28;20456;-71
2022/11/29 00:10:55;;;;;;;26.20;16.27;;;8.70;99.00;;;;;;5011415;28;20839;-70
2022/11/29 00:13:21;;;;;;;26.83;14.97;;;8.70;99.90;;;;;;5011239;28;20769;-70
2022/11/29 00:15:46;;;;;;;26.73;12.87;;;8.70;99.90;;;;;;5011786;28;20496;-71
2022/11/29 00:18:12;;;;;;;19.97;13.10;;;8.70;99.90;;;;;;5012192;28;20692;-71
2022/11/29 00:20:38;;;;;;;24.33;12.83;;;8.70;99.90;;;;;;5010586;28;20186;-71
2022/11/29 00:23:04;;;;;;;20.73;13.07;;;8.70;99.90;;;;;;5012027;28;20533;-71
2022/11/29 00:25:30;;;;;;;27.67;14.30;;;8.70;99.90;;;;;;5010265;28;20433;-71
2022/11/29 00:27:55;;;;;;;26.77;14.77;;;8.70;99.90;;;;;;5012257;28;20206;-72
2022/11/29 00:30:21;;;;;;;21.43;13.20;;;8.70;99.90;;;;;;5011939;28;20213;-72
2022/11/29 00:32:47;;;;;;;27.30;14.60;;;8.60;99.90;;;;;;5012386;28;20626;-71
2022/11/29 00:35:12;;;;;;;25.40;15.97;;;8.50;98.80;;;;;;5009225;28;20574;-71
2022/11/29 00:37:38;;;;;;;34.17;17.17;;;8.50;99.90;;;;;;5010705;28;20561;-71
2022/11/29 00:40:04;;;;;;;27.57;14.67;;;8.50;99.90;;;;;;5009465;28;20274;-70
2022/11/29 00:42:30;;;;;;;31.70;15.07;;;8.60;99.90;;;;;;5011885;28;20193;-71
2022/11/29 00:44:56;;;;;;;34.67;14.90;;;8.60;99.90;;;;;;5008718;28;20914;-70
2022/11/29 00:47:21;;;;;;;24.93;13.97;;;8.60;99.90;;;;;;5010628;28;20227;-71
2022/11/29 00:49:47;;;;;;;23.70;12.37;;;8.50;99.90;;;;;;5016056;28;20232;-71
2022/11/29 00:52:12;;;;;;;22.27;13.37;;;8.60;99.90;;;;;;5009618;28;20186;-71
2022/11/29 00:54:38;;;;;;;28.03;13.93;;;8.60;99.90;;;;;;5011041;28;20178;-71
2022/11/29 00:57:04;;;;;;;25.77;13.57;;;8.60;99.90;;;;;;5009359;28;20198;-71
2022/11/29 00:59:29;;;;;;;24.53;14.13;;;8.60;99.90;;;;;;5010891;28;20193;-70
2022/11/29 01:01:55;;;;;;;24.37;13.60;;;8.60;99.90;;;;;;5012942;28;20189;-71
2022/11/29 01:04:20;;;;;;;21.73;13.20;;;8.60;99.90;;;;;;5011534;28;20202;-71
2022/11/29 01:06:51;;;;;;;21.80;13.40;;;8.50;99.90;;;;;;5007211;28;20198;-71
2022/11/29 01:09:17;;;;;;;29.03;13.60;;;8.50;99.90;;;;;;5011562;28;20198;-71
2022/11/29 01:11:42;;;;;;;24.47;13.90;;;8.50;99.90;;;;;;5007741;28;20832;-71
2022/11/29 01:14:09;;;;;;;26.50;14.70;;;8.50;99.90;;;;;;5011460;28;20182;-71
2022/11/29 01:16:35;;;;;;;24.43;14.20;;;8.50;99.90;;;;;;5010351;28;20264;-71
2022/11/29 01:19:01;;;;;;;19.43;13.00;;;8.50;99.90;;;;;;5010791;28;20437;-71
2022/11/29 01:21:27;;;;;;;22.40;12.70;;;8.50;99.90;;;;;;5008933;28;20183;-71
2022/11/29 01:23:53;;;;;;;23.80;13.87;;;8.50;99.90;;;;;;5003193;28;20429;-71
2022/11/29 01:26:22;;;;;;;24.87;13.17;;;8.50;99.90;;;;;;5009670;28;20257;-71
2022/11/29 01:28:50;;;;;;;26.47;14.63;;;8.50;99.90;;;;;;5049125;23;20402;-72
2022/11/29 01:31:19;;;;;;;24.97;14.90;;;8.50;99.90;;;;;;5033049;28;20404;-72
2022/11/29 01:33:45;;;;;;;23.90;14.53;;;8.50;99.90;;;;;;5030093;28;20627;-71
2022/11/29 01:36:12;;;;;;;27.43;14.60;;;8.50;99.90;;;;;;5028643;28;20431;-72
2022/11/29 01:38:38;;;;;;;32.00;16.57;;;8.50;99.90;;;;;;5029691;28;20470;-72
2022/11/29 01:41:05;;;;;;;25.70;14.83;;;8.50;99.90;;;;;;5029725;28;20899;-70
2022/11/29 01:43:56;;;;;;;25.80;15.93;;;8.50;99.90;;;;;;5029758;28;20649;-72
2022/11/29 01:46:22;;;;;;;24.37;14.97;;;8.50;99.90;;;;;;5031957;28;20842;-72
2022/11/29 01:48:50;;;;;;;32.60;17.00;;;8.50;99.90;;;;;;5038181;28;20468;-69
2022/11/29 01:51:16;;;;;;;28.83;15.03;;;8.50;99.90;;;;;;5028999;28;20420;-70
2022/11/29 01:53:41;;;;;;;28.27;14.67;;;8.50;99.90;;;;;;5027824;28;20439;-69
2022/11/29 01:56:08;;;;;;;28.40;15.90;;;8.50;99.90;;;;;;5022994;28;20256;-70
2022/11/29 01:58:34;;;;;;;27.90;15.50;;;8.50;99.90;;;;;;5029804;28;20733;-69
2022/11/29 02:01:00;;;;;;;26.80;15.07;;;8.60;99.90;;;;;;5033090;28;20420;-68
2022/11/29 02:03:26;;;;;;;32.53;15.90;;;8.50;99.90;;;;;;5027559;28;20436;-69
2022/11/29 02:05:53;;;;;;;28.50;15.10;;;8.50;99.90;;;;;;5027274;28;20498;-69
2022/11/29 02:08:30;;;;;;;26.30;14.67;;;8.60;99.90;;;;;;5030356;28;20276;-69
2022/11/29 02:11:04;;;;;;;25.50;15.10;;;8.60;99.90;;;;;;5027208;28;20451;-69
2022/11/29 02:13:41;;;;;;;26.67;15.93;;;8.60;99.90;;;;;;5030351;28;20408;-69
2022/11/29 02:16:06;;;;;;;29.23;15.97;;;8.60;99.90;;;;;;5029356;28;20441;-69
2022/11/29 02:18:44;;;;;;;24.90;15.17;;;8.60;99.90;;;;;;5028526;28;20443;-68
2022/11/29 02:21:23;;;;;;;28.93;15.30;;;8.60;99.90;;;;;;5026985;28;20185;-69
2022/11/29 02:24:17;;;;;;;24.00;14.70;;;8.60;99.90;;;;;;5028976;28;20416;-69
2022/11/29 02:26:57;;;;;;;23.07;13.77;;;8.50;99.90;;;;;;5029608;28;20503;-69
2022/11/29 02:30:00;;;;;;;25.77;14.00;;;8.50;99.90;;;;;;5029318;28;20474;-69
2022/11/29 02:33:03;;;;;;;28.33;16.53;;;8.50;99.90;;;;;;5028879;28;20443;-70
2022/11/29 02:35:42;;;;;;;29.23;16.60;;;8.50;99.90;;;;;;5021740;28;20443;-69
2022/11/29 02:38:44;;;;;;;30.80;16.70;;;8.50;99.90;;;;;;5022201;28;20962;-69
2022/11/29 02:41:16;;;;;;;26.07;15.43;;;8.50;99.90;;;;;;5029221;28;20447;-69
2022/11/29 02:44:09;;;;;;;28.63;16.23;;;8.50;99.90;;;;;;5028889;28;20465;-69
2022/11/29 02:46:57;;;;;;;30.30;17.37;;;8.50;99.90;;;;;;5026220;28;20416;-69
2022/11/29 02:49:48;;;;;;;26.27;15.80;;;8.60;99.90;;;;;;5028942;28;20464;-69
2022/11/29 02:52:24;;;;;;;28.03;16.43;;;8.60;99.90;;;;;;5021642;28;20479;-69
2022/11/29 02:54:58;;;;;;;29.63;16.43;;;8.60;99.90;;;;;;5028195;28;20431;-69
2022/11/29 02:57:35;;;;;;;29.27;15.90;;;8.50;99.90;;;;;;5029596;28;20429;-69
2022/11/29 03:00:08;;;;;;;30.10;16.20;;;8.50;99.90;;;;;;5021571;28;20407;-71
2022/11/29 03:03:11;;;;;;;28.20;15.80;;;8.50;99.90;;;;;;5031914;28;20413;-69
2022/11/29 03:06:01;;;;;;;30.43;16.53;;;8.50;99.90;;;;;;5024284;28;20594;-69
2022/11/29 03:08:50;;;;;;;33.63;16.30;;;8.60;99.90;;;;;;5027363;28;20587;-68
2022/11/29 03:11:33;;;;;;;27.47;15.23;;;8.60;99.90;;;;;;5022411;28;20883;-70
2022/11/29 03:14:10;;;;;;;25.97;15.40;;;8.70;99.90;;;;;;5028610;28;20428;-69
2022/11/29 03:16:41;;;;;;;23.13;14.20;;;8.60;99.90;;;;;;5029595;28;20462;-68
2022/11/29 03:19:39;;;;;;;25.17;15.50;;;8.50;99.90;;;;;;5028361;28;20514;-69
2022/11/29 03:22:11;;;;;;;27.13;15.07;;;8.50;99.90;;;;;;5019241;28;20512;-70
2022/11/29 03:24:43;;;;;;;31.33;15.17;;;8.60;99.90;;;;;;5024570;28;20460;-69
2022/11/29 03:27:14;;;;;;;27.30;15.90;;;8.50;99.90;;;;;;5028818;28;20819;-69
2022/11/29 03:30:01;;;;;;;33.70;16.90;;;8.50;99.90;;;;;;5028714;28;20523;-68
2022/11/29 03:32:32;;;;;;;28.70;16.93;;;8.40;99.90;;;;;;5035672;28;20420;-69
2022/11/29 03:35:03;;;;;;;26.47;15.97;;;8.40;99.90;;;;;;5030766;28;20436;-68
2022/11/29 03:37:44;;;;;;;30.33;15.70;;;8.40;99.90;;;;;;5030520;28;20444;-68
2022/11/29 03:40:23;;;;;;;29.80;16.30;;;8.40;99.90;;;;;;5029242;28;20456;-69
2022/11/29 03:43:15;;;;;;;28.63;16.10;;;8.40;99.90;;;;;;5029956;28;20613;-71
2022/11/29 03:46:07;;;;;;;33.87;16.57;;;8.40;99.90;;;;;;5032966;28;20499;-69
2022/11/29 03:48:38;;;;;;;32.90;17.00;;;8.40;99.90;;;;;;5032040;28;20456;-69
2022/11/29 03:51:16;;;;;;;34.47;16.70;;;8.40;99.90;;;;;;5027431;28;20914;-69
2022/11/29 03:53:56;;;;;;;29.40;17.20;;;8.40;99.90;;;;;;5032766;28;20409;-69
2022/11/29 03:56:27;;;;;;;44.80;17.77;;;8.40;99.90;;;;;;5026311;28;20512;-69
2022/11/29 03:59:23;;;;;;;31.30;17.33;;;8.40;99.90;;;;;;5033265;28;20519;-71
2022/11/29 04:02:10;;;;;;;32.80;17.10;;;8.40;99.90;;;;;;5034144;28;20446;-72
2022/11/29 04:04:55;;;;;;;29.13;16.37;;;8.40;99.90;;;;;;5031039;28;20535;-70
2022/11/29 04:07:39;;;;;;;28.17;15.60;;;8.30;99.90;;;;;;5029259;28;20463;-69
2022/11/29 04:10:18;;;;;;;31.13;16.27;;;8.30;99.90;;;;;;5014369;28;20443;-70
2022/11/29 04:13:02;;;;;;;29.90;17.17;;;8.40;99.90;;;;;;5032412;28;20400;-69
2022/11/29 04:15:46;;;;;;;28.97;16.13;;;8.40;99.90;;;;;;5031847;28;20516;-69
2022/11/29 04:18:12;;;;;;;29.70;15.60;;;8.30;99.90;;;;;;5026182;28;20513;-70
2022/11/29 04:21:13;;;;;;;32.57;16.93;;;8.50;99.90;;;;;;5029340;28;20935;-70
2022/11/29 04:24:29;;;;;;;35.13;15.80;;;8.50;99.90;;;;;;5029083;28;20192;-69
2022/11/29 04:27:03;;;;;;;29.70;16.90;;;8.50;99.90;;;;;;5005280;28;20436;-69
2022/11/29 04:29:49;;;;;;;31.63;15.90;;;8.50;99.90;;;;;;5030196;28;20474;-69
2022/11/29 04:32:53;;;;;;;27.23;15.60;;;8.50;99.90;;;;;;5031422;28;21091;-69
2022/11/29 04:35:53;;;;;;;41.63;18.10;;;8.50;99.90;;;;;;5026022;28;20795;-67
2022/11/29 04:38:34;;;;;;;36.30;16.77;;;8.50;99.90;;;;;;5026763;28;20993;-69
2022/11/29 04:41:37;;;;;;;35.67;17.10;;;8.50;99.90;;;;;;5027844;28;20436;-70
2022/11/29 04:44:33;;;;;;;35.70;16.60;;;8.40;99.90;;;;;;5031288;28;20424;-69
2022/11/29 04:47:27;;;;;;;43.90;18.47;;;8.40;99.90;;;;;;5030973;28;20924;-69
2022/11/29 04:50:32;;;;;;;36.13;16.80;;;8.40;99.90;;;;;;5015723;28;20794;-69
2022/11/29 04:53:09;;;;;;;35.53;16.90;;;8.40;99.90;;;;;;5000565;28;20778;-69
2022/11/29 04:55:50;;;;;;;43.40;18.10;;;8.40;99.90;;;;;;5029594;28;20420;-70
2022/11/29 04:58:51;;;;;;;32.90;19.07;;;8.40;99.90;;;;;;5032087;28;20855;-69
2022/11/29 05:01:42;;;;;;;39.80;21.27;;;8.40;99.90;;;;;;5032636;28;20487;-69
2022/11/29 05:04:20;;;;;;;44.97;21.90;;;8.50;99.90;;;;;;5031789;28;20416;-69
2022/11/29 05:07:05;;;;;;;46.43;21.17;;;8.50;99.90;;;;;;5028652;28;20440;-70
2022/11/29 05:09:39;;;;;;;44.43;21.17;;;8.40;99.90;;;;;;5031108;28;20452;-69
2022/11/29 05:12:05;;;;;;;38.90;18.63;;;8.50;99.90;;;;;;5029787;28;20404;-72
2022/11/29 05:14:48;;;;;;;46.97;19.07;;;8.50;99.90;;;;;;5031292;28;20420;-69
2022/11/29 05:17:24;;;;;;;52.73;19.90;;;8.50;99.90;;;;;;5027780;28;20723;-69
2022/11/29 05:20:27;;;;;;;39.43;17.23;;;8.50;99.90;;;;;;5030389;28;20408;-69
2022/11/29 05:23:19;;;;;;;47.50;17.83;;;8.50;99.90;;;;;;5023152;28;20428;-69
2022/11/29 05:26:23;;;;;;;54.77;19.67;;;8.60;99.90;;;;;;5028494;28;20432;-69
2022/11/29 05:29:08;;;;;;;63.67;20.23;;;8.60;99.90;;;;;;5022465;28;20468;-69
2022/11/29 05:31:51;;;;;;;62.03;19.57;;;8.50;99.90;;;;;;5029138;28;20436;-70
2022/11/29 05:34:38;;;;;;;65.03;19.43;;;8.50;99.90;;;;;;5029208;28;20440;-67
2022/11/29 05:37:13;;;;;;;57.90;20.20;;;8.40;99.90;;;;;;5027594;28;20425;-69
2022/11/29 05:39:59;;;;;;;62.57;20.17;;;8.50;99.90;;;;;;5028471;28;20428;-69
2022/11/29 05:42:50;;;;;;;51.50;18.77;;;8.50;99.90;;;;;;5029807;28;20417;-69
2022/11/29 05:45:29;;;;;;;57.07;20.50;;;8.50;99.90;;;;;;5027085;28;20444;-69
2022/11/29 05:48:25;;;;;;;60.93;20.57;;;8.40;99.90;;;;;;5030493;28;20570;-69
2022/11/29 05:51:20;;;;;;;56.10;18.83;;;8.50;99.90;;;;;;5028519;28;20847;-69
2022/11/29 05:54:17;;;;;;;48.33;19.37;;;8.40;99.90;;;;;;5029642;28;21499;-69
2022/11/29 05:56:54;;;;;;;52.40;19.33;;;8.50;99.90;;;;;;5027726;28;21020;-69
2022/11/29 05:59:26;;;;;;;44.50;18.20;;;8.50;99.90;;;;;;5030567;28;20408;-71
2022/11/29 06:01:55;;;;;;;43.67;18.47;;;8.50;99.90;;;;;;5029609;28;20512;-70
2022/11/29 06:04:44;;;;;;;51.40;19.67;;;8.50;99.90;;;;;;5030300;28;20408;-69
2022/11/29 06:07:14;;;;;;;52.07;19.60;;;8.60;99.90;;;;;;5027296;28;20523;-69
2022/11/29 06:09:49;;;;;;;38.50;18.27;;;8.50;99.90;;;;;;5029963;28;20771;-72
2022/11/29 06:12:20;;;;;;;46.77;19.03;;;8.50;99.90;;;;;;5027939;28;20982;-69
2022/11/29 06:15:07;;;;;;;58.27;20.03;;;8.60;99.90;;;;;;5025676;28;20416;-69
2022/11/29 06:18:21;;;;;;;42.77;18.00;;;8.50;99.90;;;;;;5029190;28;20449;-69
2022/11/29 06:21:24;;;;;;;46.40;18.30;;;8.60;99.90;;;;;;5026315;28;20428;-69
2022/11/29 06:24:16;;;;;;;55.23;18.97;;;8.50;99.90;;;;;;5026738;28;20760;-69
2022/11/29 06:26:44;;;;;;;53.60;17.83;;;8.50;99.90;;;;;;5026824;28;20855;-69
2022/11/29 06:29:49;;;;;;;65.63;18.60;;;8.50;99.90;;;;;;5029092;28;20499;-69
2022/11/29 06:32:39;;;;;;;58.20;18.67;;;8.50;99.90;;;;;;5027976;28;20436;-69
2022/11/29 06:35:14;;;;;;;71.33;19.80;;;8.50;99.90;;;;;;5025821;28;20810;-70
2022/11/29 06:37:47;;;;;;;74.97;21.10;;;8.50;99.90;;;;;;5028560;28;20826;-70
2022/11/29 06:40:14;;;;;;;71.37;20.33;;;8.50;99.90;;;;;;5027885;28;20779;-70
2022/11/29 06:42:40;;;;;;;76.43;20.40;;;8.50;99.90;;;;;;5032936;28;20420;-71
2022/11/29 06:45:09;;;;;;;65.07;18.80;;;8.50;99.90;;;;;;5026255;28;20428;-71
2022/11/29 06:47:41;;;;;;;70.73;20.80;;;8.50;99.90;;;;;;5025323;28;20831;-70
2022/11/29 06:50:27;;;;;;;72.37;20.63;;;8.50;99.90;;;;;;5027788;28;20531;-69
2022/11/29 15:11:12;;;;;;;66.57;27.87;;;8.50;99.90;;;;;;5086937;28;20618;-68
2022/11/29 15:14:04;;;;;;;73.22;31.15;;;8.60;99.90;;;;;;5081424;28;20495;-70
2022/11/29 15:16:50;;;;;;;70.57;30.47;;;8.80;99.90;;;;;;5083366;28;20196;-70
2022/11/29 15:19:36;;;;;;;59.30;27.50;;;8.90;99.90;;;;;;5047067;28;20442;-70
2022/11/29 15:22:17;;;;;;;59.77;25.70;;;9.00;99.90;;;;;;5062411;28;20431;-70
2022/11/29 15:24:55;;;;;;;64.50;27.93;;;9.10;99.90;;;;;;5064081;28;20439;-70
2022/11/29 15:27:21;;;;;;;64.33;24.60;;;9.20;99.90;;;;;;5064116;28;20419;-69
2022/11/29 15:29:47;;;;;;;60.00;25.90;;;9.20;99.90;;;;;;5067743;28;20459;-70
2022/11/29 15:32:31;;;;;;;72.13;25.30;;;9.20;99.90;;;;;;5068677;28;20838;-70
2022/11/29 15:34:58;;;;;;;62.57;25.27;;;9.30;99.90;;;;;;5071176;28;20271;-70
2022/11/29 15:37:36;;;;;;;71.23;27.43;;;9.30;99.90;;;;;;5064270;28;20423;-70
2022/11/29 15:40:33;;;;;;;64.40;26.50;;;9.30;99.90;;;;;;5061691;28;20427;-69
2022/11/29 15:43:18;;;;;;;64.03;25.93;;;9.30;99.90;;;;;;5065262;28;20414;-70
2022/11/29 15:45:54;;;;;;;74.93;25.83;;;9.30;99.90;;;;;;5062697;28;20831;-70
2022/11/29 15:48:23;;;;;;;75.27;26.87;;;9.30;99.90;;;;;;5070849;28;20802;-70
2022/11/29 15:51:18;;;;;;;66.53;26.13;;;9.30;99.90;;;;;;5065591;28;20473;-69
2022/11/29 15:53:46;;;;;;;61.67;27.47;;;9.40;99.90;;;;;;5064018;28;20473;-70
2022/11/29 15:56:18;;;;;;;65.90;26.40;;;9.40;99.90;;;;;;5062215;28;20434;-69
2022/11/29 15:58:46;;;;;;;65.37;26.40;;;9.40;99.90;;;;;;5065107;28;21013;-70
2022/11/29 16:01:18;;;;;;;67.70;25.77;;;9.40;99.90;;;;;;5064833;28;20909;-70
2022/11/29 16:03:45;;;;;;;75.23;27.50;;;9.40;99.90;;;;;;5060246;28;20439;-68
2022/11/29 16:06:27;;;;;;;67.73;27.03;;;9.40;99.90;;;;;;5062191;28;20924;-69
2022/11/29 16:08:53;;;;;;;66.77;28.00;;;9.30;99.90;;;;;;5061196;28;22419;-69
2022/11/29 16:11:23;;;;;;;73.23;28.77;;;9.70;99.90;;;;;;5060612;28;20445;-71
2022/11/29 16:14:15;;;;;;;68.43;26.40;;;9.40;99.90;;;;;;5062882;28;20507;-68
2022/11/29 16:16:46;;;;;;;66.47;26.70;;;9.40;99.90;;;;;;5058889;28;20438;-68
2022/11/29 16:19:27;;;;;;;77.67;29.10;;;9.40;99.90;;;;;;5057614;28;21090;-68
2022/11/29 16:22:08;;;;;;;69.80;27.97;;;9.40;99.90;;;;;;5052147;28;20427;-68
2022/11/29 16:24:36;;;;;;;78.23;28.70;;;9.40;99.90;;;;;;5051434;28;20431;-68
2022/11/29 16:27:03;;;;;;;71.23;28.13;;;9.40;99.90;;;;;;5065146;28;20454;-68
2022/11/29 16:29:29;;;;;;;68.53;28.90;;;9.40;99.90;;;;;;5051726;28;20467;-68
2022/11/29 16:31:55;;;;;;;62.07;26.30;;;9.30;99.90;;;;;;5052906;28;20511;-69
2022/11/29 16:34:30;;;;;;;64.00;27.00;;;9.30;99.90;;;;;;5051670;28;20503;-68
2022/11/29 16:37:12;;;;;;;63.60;25.97;;;9.40;99.90;;;;;;5047083;28;20199;-68
2022/11/29 16:39:38;;;;;;;65.97;26.70;;;9.40;99.90;;;;;;5049180;28;20430;-69
2022/11/29 16:42:14;;;;;;;72.70;27.37;;;9.50;99.90;;;;;;5049059;28;20879;-70
2022/11/29 16:44:39;;;;;;;57.20;27.33;;;9.50;99.90;;;;;;5046978;28;20719;-69
2022/11/29 16:47:14;;;;;;;62.83;26.67;;;9.50;99.90;;;;;;5047573;28;20581;-68
2022/11/29 16:49:39;;;;;;;70.10;27.43;;;9.60;99.90;;;;;;5051523;28;20200;-69
2022/11/29 16:52:23;;;;;;;62.17;26.50;;;9.50;99.90;;;;;;5046172;28;20431;-69
2022/11/29 16:54:49;;;;;;;63.23;25.90;;;9.60;99.90;;;;;;5050730;28;20180;-69
2022/11/29 16:57:15;;;;;;;59.47;25.20;;;9.60;99.90;;;;;;5048240;28;20444;-69
2022/11/29 16:59:40;;;;;;;62.97;26.17;;;9.50;99.90;;;;;;5049863;28;20507;-69
2022/11/29 17:02:13;;;;;;;56.60;24.87;;;9.50;99.90;;;;;;5048674;28;20177;-69
2022/11/29 17:04:39;;;;;;;62.57;26.83;;;9.50;99.90;;;;;;5047602;28;20185;-69
2022/11/29 17:07:07;;;;;;;63.30;27.87;;;9.50;99.90;;;;;;5047296;28;20434;-69
2022/11/29 17:09:34;;;;;;;75.20;27.93;;;9.40;99.90;;;;;;5049394;28;20290;-71
2022/11/29 17:12:01;;;;;;;57.60;28.60;;;9.30;99.90;;;;;;5048605;28;20432;-70
2022/11/29 17:14:28;;;;;;;66.03;26.07;;;9.40;99.90;;;;;;5050932;28;20434;-70
2022/11/29 17:16:53;;;;;;;55.73;25.10;;;9.40;99.90;;;;;;5048741;28;20802;-70
2022/11/29 17:19:21;;;;;;;64.60;28.70;;;9.40;99.90;;;;;;5053730;28;20447;-70
2022/11/29 17:21:47;;;;;;;56.97;27.67;;;9.40;99.90;;;;;;5046644;28;20177;-70
2022/11/29 17:24:16;;;;;;;58.17;26.03;;;9.40;99.90;;;;;;5044405;28;20506;-71
2022/11/29 17:26:43;;;;;;;72.53;28.07;;;9.40;99.90;;;;;;5048499;28;20276;-70
2022/11/29 17:29:13;;;;;;;64.03;28.47;;;9.40;99.90;;;;;;5051207;28;21053;-71
2022/11/29 17:31:40;;;;;;;57.20;27.50;;;9.40;99.90;;;;;;5049678;28;20447;-69
2022/11/29 17:34:05;;;;;;;76.03;28.67;;;9.30;99.90;;;;;;5048749;28;20456;-70
2022/11/29 17:36:31;;;;;;;59.40;27.53;;;9.50;99.90;;;;;;5048737;28;20494;-70
2022/11/29 17:39:00;;;;;;;64.90;27.40;;;9.30;99.90;;;;;;5050336;28;20676;-70
2022/11/29 17:41:27;;;;;;;61.10;27.47;;;9.20;99.90;;;;;;5051370;28;20648;-70
2022/11/29 17:43:54;;;;;;;55.20;27.53;;;9.30;99.90;;;;;;5050475;28;20427;-69
2022/11/29 17:46:21;;;;;;;59.00;27.20;;;9.30;99.90;;;;;;5047909;28;20440;-71
2022/11/29 17:48:48;;;;;;;59.07;27.47;;;9.30;99.90;;;;;;5053920;28;20440;-71
2022/11/29 17:51:15;;;;;;;66.67;28.33;;;9.30;99.90;;;;;;5049131;28;20441;-70
2022/11/29 17:53:41;;;;;;;60.50;29.33;;;9.20;99.90;;;;;;5048000;28;20434;-69
2022/11/29 17:56:10;;;;;;;68.93;31.70;;;9.20;99.90;;;;;;5048426;28;20463;-71
2022/11/29 17:58:36;;;;;;;77.50;36.13;;;9.20;99.90;;;;;;5048382;28;21000;-70
2022/11/29 18:01:13;;;;;;;69.63;28.40;;;9.20;99.90;;;;;;5046859;28;20431;-68
2022/11/29 18:03:40;;;;;;;65.33;30.80;;;9.20;99.90;;;;;;5065019;22;20473;-71
2022/11/29 18:06:15;;;;;;;90.30;36.30;;;9.20;99.90;;;;;;5009168;28;20429;-72
2022/11/29 18:08:46;;;;;;;77.80;36.90;;;9.20;99.90;;;;;;5018569;28;20457;-73
2022/11/29 18:11:15;;;;;;;84.85;34.78;;;9.20;99.90;;;;;;5008233;28;20610;-71
2022/11/29 18:13:40;;;;;;;61.93;30.67;;;9.20;99.90;;;;;;5023494;28;20730;-72
2022/11/29 18:16:07;;;;;;;63.07;27.67;;;9.20;99.90;;;;;;5009988;28;20442;-70
2022/11/29 18:18:34;;;;;;;61.70;26.30;;;9.20;99.90;;;;;;5019264;28;20509;-71
2022/11/29 18:21:00;;;;;;;58.77;26.37;;;9.30;99.90;;;;;;5007730;28;20529;-71
2022/11/29 18:23:30;;;;;;;46.87;23.90;;;9.40;99.90;;;;;;5014955;28;20544;-71
2022/11/29 18:25:57;;;;;;;57.53;24.90;;;9.40;99.90;;;;;;5008473;28;20448;-70
2022/11/29 18:28:23;;;;;;;52.93;24.23;;;9.40;99.90;;;;;;5018727;28;20425;-70
2022/11/29 18:30:49;;;;;;;49.40;24.83;;;9.40;99.90;;;;;;4991927;28;21032;-69
2022/11/29 18:33:14;;;;;;;51.27;24.73;;;9.40;99.90;;;;;;5010114;28;20170;-71
2022/11/29 18:35:40;;;;;;;52.00;24.47;;;9.40;99.90;;;;;;5009018;28;20766;-70
2022/11/29 18:38:05;;;;;;;48.53;23.17;;;9.50;99.90;;;;;;5017977;28;20169;-70
2022/11/29 18:40:31;;;;;;;53.87;25.63;;;9.40;99.90;;;;;;5013455;28;20557;-70
2022/11/29 18:42:57;;;;;;;58.40;24.43;;;9.40;99.90;;;;;;5015533;28;20205;-72
2022/11/29 18:45:22;;;;;;;60.40;27.77;;;9.50;99.90;;;;;;5014758;28;20202;-69
2022/11/29 18:47:48;;;;;;;56.27;26.90;;;9.50;99.90;;;;;;5011368;28;20269;-70
2022/11/29 18:50:13;;;;;;;60.17;27.20;;;9.50;99.90;;;;;;5015648;28;20680;-70
2022/11/29 18:52:39;;;;;;;60.53;27.60;;;9.50;99.90;;;;;;5014057;28;20183;-67
2022/11/29 18:55:04;;;;;;;68.27;27.23;;;9.50;99.90;;;;;;5015187;28;20293;-73
2022/11/29 18:57:30;;;;;;;53.27;25.47;;;9.40;99.90;;;;;;5013911;28;20224;-70
2022/11/29 18:59:55;;;;;;;52.30;24.23;;;9.30;99.90;;;;;;5012612;28;20181;-68
2022/11/29 19:02:21;;;;;;;46.37;23.03;;;9.40;99.90;;;;;;4989233;28;20185;-69
2022/11/29 19:04:48;;;;;;;51.57;25.23;;;9.50;99.90;;;;;;5015340;28;20202;-70
2022/11/29 19:07:15;;;;;;;41.73;22.47;;;9.40;99.90;;;;;;5014115;28;20269;-72
2022/11/29 19:09:40;;;;;;;48.23;25.07;;;9.50;99.90;;;;;;5012879;28;20503;-73
2022/11/29 19:12:06;;;;;;;50.10;25.93;;;9.50;99.90;;;;;;5012866;28;20433;-69
2022/11/29 19:14:32;;;;;;;55.63;26.07;;;9.50;99.90;;;;;;5006628;28;20198;-69
2022/11/29 19:16:58;;;;;;;61.57;27.57;;;9.50;99.90;;;;;;5019251;28;20268;-70
2022/11/29 19:19:24;;;;;;;65.37;29.50;;;9.50;99.90;;;;;;5016487;28;20901;-70
2022/11/29 19:21:49;;;;;;;54.93;28.00;;;9.40;99.90;;;;;;5016053;28;20194;-70
2022/11/29 19:24:16;;;;;;;61.00;27.10;;;9.40;99.90;;;;;;5009453;28;20210;-73
2022/11/29 19:26:43;;;;;;;53.87;25.63;;;9.40;99.90;;;;;;5017650;28;20270;-70
2022/11/29 19:29:09;;;;;;;61.90;27.77;;;9.40;99.90;;;;;;5008361;28;20563;-70
2022/11/29 19:31:38;;;;;;;62.10;29.20;;;9.40;99.90;;;;;;4995727;28;20512;-69
2022/11/29 19:34:03;;;;;;;60.73;27.93;;;9.30;99.90;;;;;;5012025;28;20387;-70
2022/11/29 19:36:30;;;;;;;60.17;27.60;;;9.20;99.90;;;;;;5018936;28;20795;-72
2022/11/29 19:38:58;;;;;;;53.60;27.50;;;9.20;99.90;;;;;;5010179;28;20178;-69
2022/11/29 19:41:26;;;;;;;62.73;28.30;;;9.20;99.90;;;;;;5007721;28;20479;-70
2022/11/29 19:43:53;;;;;;;55.90;28.50;;;9.20;99.90;;;;;;5019057;28;20437;-70
2022/11/29 19:46:21;;;;;;;61.87;27.60;;;9.10;99.90;;;;;;5017252;28;20932;-69
2022/11/29 19:48:46;;;;;;;51.57;26.90;;;9.10;99.90;;;;;;5018166;28;20437;-69
2022/11/29 19:51:15;;;;;;;51.47;25.83;;;9.10;99.90;;;;;;5002711;28;20428;-70
2022/11/29 19:53:40;;;;;;;55.40;28.47;;;9.00;99.90;;;;;;5006458;28;20317;-72
2022/11/29 19:56:09;;;;;;;55.33;26.60;;;9.00;99.90;;;;;;5011482;28;20574;-69
2022/11/29 19:58:34;;;;;;;57.70;26.67;;;9.00;99.90;;;;;;5012385;28;20671;-70
2022/11/29 20:01:08;;;;;;;59.00;26.90;;;9.00;99.90;;;;;;5012724;28;20420;-70
2022/11/29 20:03:34;;;;;;;54.40;27.07;;;8.80;99.90;;;;;;5020702;28;20205;-70
2022/11/29 20:06:01;;;;;;;57.03;26.77;;;8.80;99.90;;;;;;5012205;28;20429;-70
2022/11/29 20:08:27;;;;;;;60.07;26.80;;;8.80;99.90;;;;;;5012649;28;20198;-70
2022/11/29 20:10:53;;;;;;;58.87;28.60;;;8.80;99.90;;;;;;5011625;28;20453;-68
2022/11/29 20:13:19;;;;;;;56.40;25.87;;;8.70;99.90;;;;;;4994858;28;20444;-70
2022/11/29 20:15:44;;;;;;;61.77;26.90;;;8.70;99.90;;;;;;5024516;28;20180;-71
2022/11/29 20:18:10;;;;;;;60.77;26.83;;;8.70;99.90;;;;;;5013646;28;20572;-69
2022/11/29 20:20:36;;;;;;;58.87;26.97;;;8.70;99.90;;;;;;5018464;28;20319;-70
2022/11/29 20:23:01;;;;;;;59.97;29.27;;;8.50;99.90;;;;;;5011247;28;20186;-69
2022/11/29 20:25:27;;;;;;;64.60;29.30;;;8.50;99.90;;;;;;5011215;28;20688;-70
2022/11/29 20:27:52;;;;;;;73.10;29.93;;;8.40;99.90;;;;;;5012442;28;20182;-70
2022/11/29 20:30:18;;;;;;;72.53;31.80;;;8.40;99.90;;;;;;5022875;28;20201;-70
2022/11/29 20:32:44;;;;;;;73.70;33.53;;;8.40;99.90;;;;;;5010486;28;20266;-72
2022/11/29 20:35:10;;;;;;;69.00;33.70;;;8.40;99.90;;;;;;5019581;28;20187;-70
2022/11/29 20:38:05;;;;;;;65.53;34.70;;;8.40;99.90;;;;;;5011574;28;20468;-70
2022/11/29 20:41:09;;;;;;;68.47;30.40;;;8.50;99.90;;;;;;5022655;28;20433;-70
2022/11/29 20:43:45;;;;;;;67.10;30.70;;;8.50;99.90;;;;;;5017599;28;20441;-70
2022/11/29 20:46:11;;;;;;;57.10;29.13;;;8.50;99.90;;;;;;5016933;28;20429;-70
2022/11/29 20:48:37;;;;;;;58.80;27.10;;;8.50;99.90;;;;;;5026026;28;20431;-70
2022/11/29 20:51:03;;;;;;;68.57;28.80;;;8.50;99.90;;;;;;5016922;28;20632;-71
2022/11/29 20:53:36;;;;;;;69.77;29.53;;;8.40;99.90;;;;;;5014624;28;20225;-71
2022/11/29 20:56:04;;;;;;;62.50;32.00;;;8.40;99.90;;;;;;5019824;28;20234;-70
2022/11/29 20:58:30;;;;;;;63.70;32.50;;;8.40;99.90;;;;;;5030051;28;20417;-70
2022/11/29 21:00:56;;;;;;;68.83;32.00;;;8.40;99.90;;;;;;5018456;28;20517;-69
2022/11/29 21:03:22;;;;;;;68.50;31.90;;;8.50;99.90;;;;;;5009671;28;20186;-70
2022/11/29 21:05:48;;;;;;;64.20;30.77;;;8.40;99.90;;;;;;5019332;28;20429;-69
2022/11/29 21:08:15;;;;;;;58.47;29.90;;;8.40;99.90;;;;;;5015275;28;20436;-69
2022/11/29 21:10:41;;;;;;;75.40;31.00;;;8.40;99.90;;;;;;5015575;28;20500;-69
2022/11/29 21:13:08;;;;;;;64.10;31.90;;;8.40;99.90;;;;;;5025782;28;20953;-70
2022/11/29 21:15:34;;;;;;;64.47;31.53;;;8.30;99.90;;;;;;5020054;28;20220;-70
2022/11/29 21:18:00;;;;;;;59.80;30.03;;;8.30;99.90;;;;;;5019622;28;20908;-70
2022/11/29 21:20:26;;;;;;;71.47;32.20;;;8.30;99.90;;;;;;5009117;28;20186;-72
2022/11/29 21:23:07;;;;;;;68.17;32.50;;;8.30;99.90;;;;;;5009778;28;20598;-70
2022/11/29 21:25:59;;;;;;;82.50;33.87;;;8.30;99.90;;;;;;5020483;28;20513;-70
2022/11/29 21:28:34;;;;;;;75.80;30.07;;;8.30;99.90;;;;;;5024569;28;20420;-70